메인 페이지
METAR-TAF:

METAR-TAF

공항 :

아카풀코, 멕시코

위도: 16-46N, 경도: 099-45W, 고도: 5m

현재 날씨관측

예보는 37분 전, 21:42시(UTC)에 발표되었습니다.
서남서10kt
온도 29°C
습도 70%
기압 1012 hPa
시정: 11.3km
고도 1500ft 상공 구름 조금
고도 10000ft 상공 구름 조금
고도 30000ft 상공 흐림

METAR: MMAA 202142Z 24010KT 7SM FEW015 FEW100 OVC300 29/23 A2989 RMK 8/137 HZY BINOVC

시각: 16:19 (22:19 UTC)

예보

예보는 6 시간 5분 전, 16:14시(UTC)에 발표되었습니다.
예보 대상 시간: 20일 18시부터 21일 24시까지 (UTC)
서남서10kt
시정: 10km
고도 12000ft 상공 구름 보통
고도 25000ft 상공 구름 많음
21일 0400시부터 (UTC)
5kt
시정: 10km
고도 1500ft 상공 구름 보통
고도 25000ft 상공 구름 많음
21일 1700시부터 (UTC)
서남서10kt
시정: 10km
맑음

TAF: MMAA 201614Z 2018/2124 24010KT P6SM SCT120 BKN250 TX30/2018Z TN23/2112Z FM210400 35005KT P6SM SCT015 BKN250 FM211700 24010KT P6SM SKC

4,000개 이상의 공항 관측 자료 및 예보 (METAR 및 TAF 보고).

지도상에서 검색 가능한 기상관측소가 노란 점과 빨간 점으로 표시되어 있습니다.

기상관측소 명을 보려면 표시 위로 마우스를 이동하세요.

날씨 관측과 예보를 보려면 클릭하세요.

지도 변경 : 확대하려면 엑스 표시가 있는 녹색 버튼, 축소하려면 빼기 표시가 있는 녹색 버튼, 다음 페이지의 지도를 보려면 녹색 화살표를 클릭하세요.


METAR-TAF: